createdAt,value
2022-09-15T00:00:38.451Z,67.68
2022-09-15T00:02:40.008Z,67.61
2022-09-15T00:04:42.644Z,67.46
2022-09-15T00:06:44.156Z,67.44
2022-09-15T00:08:45.835Z,67.43
2022-09-15T00:10:49.232Z,67.60
2022-09-15T00:12:50.778Z,67.53
2022-09-15T00:14:52.525Z,67.69
2022-09-15T00:16:54.082Z,67.90
2022-09-15T00:18:55.621Z,68.34
2022-09-15T00:20:57.442Z,68.51
2022-09-15T00:22:58.962Z,68.64
2022-09-15T00:25:00.541Z,68.88
2022-09-15T00:27:02.140Z,69.19
2022-09-15T00:29:04.063Z,69.24
2022-09-15T00:31:13.617Z,69.46
2022-09-15T00:33:15.376Z,69.68
2022-09-15T00:35:16.958Z,69.82
2022-09-15T00:37:18.682Z,70.05
2022-09-15T00:39:20.665Z,69.91
2022-09-15T00:41:22.960Z,70.06
2022-09-15T00:43:42.713Z,69.91
2022-09-15T00:45:45.116Z,70.05
2022-09-15T00:47:46.629Z,70.15
2022-09-15T00:49:49.780Z,70.33
2022-09-15T00:51:52.786Z,70.33
2022-09-15T00:53:57.497Z,70.37
2022-09-15T00:55:59.279Z,70.16
2022-09-15T00:58:03.006Z,70.03
2022-09-15T01:00:06.685Z,69.71
2022-09-15T01:02:29.582Z,69.47
2022-09-15T01:04:31.213Z,69.52
2022-09-15T01:06:36.644Z,69.32
2022-09-15T01:08:58.475Z,69.15
2022-09-15T01:11:00.513Z,69.13
2022-09-15T01:13:03.475Z,68.90
2022-09-15T01:15:05.465Z,69.08
2022-09-15T01:17:11.488Z,69.27
2022-09-15T01:19:37.410Z,69.29
2022-09-15T01:21:52.891Z,69.45
2022-09-15T01:24:01.139Z,69.44
2022-09-15T01:26:22.472Z,69.48
2022-09-15T01:28:43.838Z,69.49
2022-09-15T01:30:47.145Z,69.53
2022-09-15T01:33:05.557Z,69.39
2022-09-15T01:35:11.426Z,69.51
2022-09-15T01:37:13.647Z,69.55
2022-09-15T01:39:22.273Z,69.59
2022-09-15T01:41:31.630Z,69.49
2022-09-15T01:43:33.960Z,69.50
2022-09-15T01:45:35.522Z,69.50
2022-09-15T01:47:37.107Z,69.39
2022-09-15T01:49:41.768Z,69.30
2022-09-15T01:51:44.996Z,69.20
2022-09-15T01:53:46.590Z,68.92
2022-09-15T01:55:55.046Z,68.95
2022-09-15T01:57:57.318Z,68.91
2022-09-15T01:59:59.027Z,68.85
2022-09-15T02:02:08.116Z,68.69
2022-09-15T02:04:23.739Z,68.87
2022-09-15T02:06:36.958Z,68.71
2022-09-15T02:08:40.815Z,68.74
2022-09-15T02:10:51.640Z,68.93
2022-09-15T02:13:03.213Z,68.94
2022-09-15T02:15:08.692Z,68.78
2022-09-15T02:17:12.193Z,68.92
2022-09-15T02:19:22.355Z,69.07
2022-09-15T02:21:35.137Z,68.85
2022-09-15T02:23:43.692Z,68.89
2022-09-15T02:25:47.338Z,68.84
2022-09-15T02:27:52.949Z,68.99
2022-09-15T02:29:55.789Z,68.74
2022-09-15T02:31:57.569Z,68.84
2022-09-15T02:34:00.591Z,68.73
2022-09-15T02:36:02.232Z,68.75
2022-09-15T02:38:05.351Z,68.70
2022-09-15T02:40:07.242Z,68.85
2022-09-15T02:42:08.849Z,68.70
2022-09-15T02:44:10.410Z,68.80
2022-09-15T02:46:12.451Z,68.75
2022-09-15T02:48:15.425Z,68.93
2022-09-15T02:50:17.557Z,68.96
2022-09-15T02:52:22.278Z,69.30
2022-09-15T02:54:23.936Z,69.38
2022-09-15T02:56:25.588Z,69.42
2022-09-15T02:58:27.136Z,69.40
2022-09-15T03:00:28.655Z,69.60
2022-09-15T03:02:30.502Z,69.63
2022-09-15T03:04:32.111Z,69.72
2022-09-15T03:06:36.569Z,69.73
2022-09-15T03:08:47.671Z,69.90
2022-09-15T03:10:49.201Z,69.89
2022-09-15T03:12:52.584Z,69.81
2022-09-15T03:14:54.113Z,69.88
2022-09-15T03:16:55.644Z,69.87
2022-09-15T03:18:59.311Z,69.64
2022-09-15T03:21:02.196Z,69.84
2022-09-15T03:23:03.798Z,69.71
2022-09-15T03:25:06.606Z,69.73
2022-09-15T03:27:08.188Z,69.78
2022-09-15T03:29:09.765Z,69.79
2022-09-15T03:31:13.705Z,69.94
2022-09-15T03:33:15.293Z,70.07
2022-09-15T03:35:17.071Z,70.13
2022-09-15T03:37:18.590Z,70.14
2022-09-15T03:39:20.177Z,70.31
2022-09-15T03:41:21.689Z,70.41
2022-09-15T03:43:23.478Z,70.52
2022-09-15T03:45:25.132Z,70.70
2022-09-15T03:47:26.707Z,70.52
2022-09-15T03:49:28.184Z,70.53
2022-09-15T03:51:29.691Z,70.58
2022-09-15T03:53:39.195Z,70.43
2022-09-15T03:55:40.710Z,70.47
2022-09-15T03:57:42.448Z,70.43
2022-09-15T03:59:44.186Z,70.44
2022-09-15T04:01:46.139Z,70.33
2022-09-15T04:03:51.124Z,70.28
2022-09-15T04:05:53.534Z,70.15
2022-09-15T04:07:55.076Z,70.12
2022-09-15T04:09:57.316Z,70.22
2022-09-15T04:11:58.861Z,70.18
2022-09-15T04:14:00.378Z,70.27
2022-09-15T04:16:02.992Z,70.32
2022-09-15T04:18:05.095Z,70.65
2022-09-15T04:20:07.515Z,70.60
2022-09-15T04:22:12.327Z,70.79
2022-09-15T04:24:15.890Z,70.95
2022-09-15T04:26:19.975Z,71.22
2022-09-15T04:28:22.953Z,71.13
2022-09-15T04:30:24.523Z,71.06
2022-09-15T04:32:26.224Z,71.17
2022-09-15T04:34:27.856Z,71.01
2022-09-15T04:36:29.649Z,70.94
2022-09-15T04:38:31.735Z,71.08
2022-09-15T04:40:34.030Z,71.07
2022-09-15T04:42:36.279Z,71.07
2022-09-15T04:44:38.054Z,71.06
2022-09-15T04:46:39.697Z,71.09
2022-09-15T04:48:42.990Z,71.27
2022-09-15T04:50:52.827Z,71.35
2022-09-15T04:52:54.386Z,71.47
2022-09-15T04:54:55.974Z,71.64
2022-09-15T04:56:57.816Z,71.75
2022-09-15T04:59:03.583Z,71.79
2022-09-15T05:01:13.471Z,71.92
2022-09-15T05:03:16.407Z,72.17
2022-09-15T05:05:17.948Z,72.38
2022-09-15T05:07:19.704Z,72.15
2022-09-15T05:09:21.243Z,72.51
2022-09-15T05:11:22.903Z,72.47
2022-09-15T05:13:26.541Z,72.57
2022-09-15T05:15:30.238Z,72.77
2022-09-15T05:17:32.603Z,72.94
2022-09-15T05:19:34.877Z,73.11
2022-09-15T05:21:37.617Z,73.27
2022-09-15T05:23:39.323Z,73.33
2022-09-15T05:25:41.159Z,73.30
2022-09-15T05:27:42.733Z,73.35
2022-09-15T05:29:44.268Z,73.31
2022-09-15T05:31:45.852Z,73.01
2022-09-15T05:33:48.059Z,72.87
2022-09-15T05:35:57.885Z,72.79
2022-09-15T05:37:59.431Z,72.65
2022-09-15T05:40:03.231Z,72.79
2022-09-15T05:42:08.817Z,72.76
2022-09-15T05:44:10.410Z,72.54
2022-09-15T05:46:12.243Z,72.44
2022-09-15T05:48:13.878Z,72.64
2022-09-15T05:50:16.283Z,72.76
2022-09-15T05:52:18.794Z,72.94
2022-09-15T05:54:20.290Z,73.01
2022-09-15T05:56:21.885Z,73.28
2022-09-15T05:58:23.547Z,73.46
2022-09-15T06:00:25.068Z,73.44
2022-09-15T06:02:26.666Z,73.33
2022-09-15T06:04:28.311Z,73.59
2022-09-15T06:06:30.779Z,73.61
2022-09-15T06:08:44.277Z,73.45
2022-09-15T06:10:47.483Z,73.38
2022-09-15T06:12:50.740Z,73.61
2022-09-15T06:14:53.183Z,73.41
2022-09-15T06:16:54.694Z,73.42
2022-09-15T06:18:56.199Z,73.31
2022-09-15T06:21:02.732Z,73.16
2022-09-15T06:23:04.432Z,72.99
2022-09-15T06:25:06.449Z,72.79
2022-09-15T06:27:07.954Z,72.43
2022-09-15T06:29:11.397Z,72.23
2022-09-15T06:31:13.173Z,71.94
2022-09-15T06:33:15.415Z,71.75
2022-09-15T06:35:17.446Z,71.49
2022-09-15T06:37:19.114Z,71.55
2022-09-15T06:39:20.634Z,71.46
2022-09-15T06:41:22.255Z,71.32
2022-09-15T06:43:23.782Z,71.12
2022-09-15T06:45:25.474Z,71.11
2022-09-15T06:47:33.954Z,71.16
2022-09-15T06:49:35.583Z,71.11
2022-09-15T06:51:37.122Z,71.03
2022-09-15T06:53:38.738Z,71.16
2022-09-15T06:55:40.285Z,70.99
2022-09-15T06:57:41.822Z,70.95
2022-09-15T06:59:43.783Z,70.84
2022-09-15T07:01:47.584Z,70.52
2022-09-15T07:03:49.426Z,70.33
2022-09-15T07:05:51.155Z,70.22
2022-09-15T07:07:53.098Z,70.22
2022-09-15T07:09:54.714Z,69.71
2022-09-15T07:11:56.298Z,69.42
2022-09-15T07:13:57.859Z,69.44
2022-09-15T07:16:00.359Z,69.38
2022-09-15T07:18:01.968Z,69.43
2022-09-15T07:20:04.666Z,69.17
2022-09-15T07:22:06.180Z,68.97
2022-09-15T07:24:15.803Z,69.08
2022-09-15T07:26:18.428Z,69.10
2022-09-15T07:28:20.110Z,69.01
2022-09-15T07:30:22.695Z,69.01
2022-09-15T07:32:24.532Z,68.97
2022-09-15T07:34:28.116Z,68.78
2022-09-15T07:36:29.956Z,68.97
2022-09-15T07:38:31.433Z,68.90
2022-09-15T07:40:34.526Z,68.81
2022-09-15T07:42:36.411Z,68.69
2022-09-15T07:44:43.919Z,68.71
2022-09-15T07:46:45.524Z,68.59
2022-09-15T07:48:48.118Z,68.33
2022-09-15T07:50:49.686Z,68.04
2022-09-15T07:52:51.309Z,67.35
2022-09-15T07:54:52.789Z,66.83
2022-09-15T07:56:54.447Z,67.13
2022-09-15T07:58:55.973Z,67.13
2022-09-15T08:01:01.290Z,66.89
2022-09-15T08:03:07.135Z,66.93
2022-09-15T08:05:08.698Z,67.04
2022-09-15T08:07:10.509Z,66.98
2022-09-15T08:09:14.883Z,66.48
2022-09-15T08:11:19.039Z,66.31
2022-09-15T08:13:20.880Z,66.27
2022-09-15T08:15:22.411Z,66.17
2022-09-15T08:17:24.019Z,66.19
2022-09-15T08:19:25.509Z,65.95
2022-09-15T08:21:28.255Z,65.84
2022-09-15T08:23:29.788Z,65.73
2022-09-15T08:25:31.278Z,65.92
2022-09-15T08:27:32.883Z,65.66
2022-09-15T08:29:35.006Z,65.85
2022-09-15T08:31:36.622Z,64.87
2022-09-15T08:33:40.823Z,64.44
2022-09-15T08:35:46.205Z,64.03
2022-09-15T08:37:47.723Z,63.91
2022-09-15T08:39:49.233Z,63.94
2022-09-15T08:41:51.662Z,63.73
2022-09-15T08:43:56.134Z,63.39
2022-09-15T08:46:01.059Z,62.77
2022-09-15T08:48:03.702Z,62.64
2022-09-15T08:50:08.033Z,62.04
2022-09-15T08:52:27.963Z,61.98
2022-09-15T08:54:29.551Z,62.06
2022-09-15T08:56:31.071Z,60.95
2022-09-15T08:58:34.365Z,60.96
2022-09-15T09:00:35.886Z,61.32
2022-09-15T09:02:37.426Z,60.73
2022-09-15T09:04:48.212Z,60.36
2022-09-15T09:06:59.797Z,60.20
2022-09-15T09:09:20.031Z,59.99
2022-09-15T09:11:25.494Z,60.00
2022-09-15T09:13:45.613Z,60.33
2022-09-15T09:16:06.127Z,60.67
2022-09-15T09:18:11.047Z,59.77
2022-09-15T09:20:13.048Z,57.97
2022-09-15T09:22:16.103Z,58.33
2022-09-15T09:24:18.715Z,58.84
2022-09-15T09:26:20.294Z,59.02
2022-09-15T09:29:00.341Z,58.34
2022-09-15T09:31:06.637Z,57.53
2022-09-15T09:33:14.140Z,57.68
2022-09-15T09:35:21.540Z,57.08
2022-09-15T09:37:23.911Z,56.47
2022-09-15T09:39:25.588Z,55.93
2022-09-15T09:41:35.753Z,55.21
2022-09-15T09:43:37.259Z,55.49
2022-09-15T09:45:39.061Z,55.27
2022-09-15T09:47:40.601Z,55.56
2022-09-15T09:49:48.497Z,55.82
2022-09-15T09:51:52.256Z,54.69
2022-09-15T09:53:53.977Z,54.46
2022-09-15T09:55:56.098Z,54.08
2022-09-15T09:58:11.607Z,53.98
2022-09-15T10:00:32.037Z,52.73
2022-09-15T10:02:34.113Z,52.73
2022-09-15T10:04:35.729Z,53.08
2022-09-15T10:06:37.309Z,52.99
2022-09-15T10:08:39.129Z,52.53
2022-09-15T10:10:40.715Z,52.26
2022-09-15T10:12:42.285Z,52.22
2022-09-15T10:14:45.478Z,52.68
2022-09-15T10:16:57.171Z,52.23
2022-09-15T10:18:58.779Z,51.99
2022-09-15T10:21:01.642Z,51.96
2022-09-15T10:23:09.945Z,52.40
2022-09-15T10:25:44.542Z,53.02
2022-09-15T10:28:10.837Z,53.15
2022-09-15T10:30:12.494Z,51.79
2022-09-15T10:32:24.852Z,51.88
2022-09-15T10:34:31.021Z,50.97
2022-09-15T10:36:33.652Z,50.97
2022-09-15T10:38:39.632Z,50.31
2022-09-15T10:40:45.224Z,50.09
2022-09-15T10:42:46.749Z,50.28
2022-09-15T10:44:48.219Z,49.76
2022-09-15T10:47:03.416Z,50.42
2022-09-15T10:49:27.742Z,50.49
2022-09-15T10:51:48.189Z,49.10
2022-09-15T10:54:16.728Z,49.15
2022-09-15T10:56:25.837Z,48.82
2022-09-15T10:58:39.853Z,48.69
2022-09-15T11:00:43.787Z,48.04
2022-09-15T11:02:46.476Z,47.73
2022-09-15T11:04:48.042Z,47.56
2022-09-15T11:07:08.151Z,47.16
2022-09-15T11:09:26.003Z,47.02
2022-09-15T11:11:42.839Z,47.10
2022-09-15T11:14:11.197Z,46.95
2022-09-15T11:16:26.177Z,47.39
2022-09-15T11:18:27.842Z,47.04
2022-09-15T11:20:50.730Z,47.07
2022-09-15T11:23:11.447Z,46.35
2022-09-15T11:25:14.028Z,46.28
2022-09-15T11:27:15.581Z,46.26
2022-09-15T11:29:40.069Z,45.45
2022-09-15T11:31:45.045Z,44.68
2022-09-15T11:33:48.589Z,43.94
2022-09-15T11:35:51.917Z,42.56
2022-09-15T11:37:54.070Z,42.98
2022-09-15T11:40:00.392Z,42.82
2022-09-15T11:42:05.577Z,43.36
2022-09-15T11:44:25.482Z,43.31
2022-09-15T11:46:31.950Z,42.72
2022-09-15T11:48:35.694Z,43.56
2022-09-15T11:50:38.172Z,43.63
2022-09-15T11:52:42.614Z,42.90
2022-09-15T11:54:46.202Z,42.55
2022-09-15T11:56:47.762Z,40.96
2022-09-15T11:59:05.729Z,41.88
2022-09-15T12:01:08.992Z,42.19
2022-09-15T12:03:14.029Z,41.98
2022-09-15T12:05:17.562Z,42.44
2022-09-15T12:07:20.804Z,42.72
2022-09-15T12:09:22.465Z,43.16
2022-09-15T12:11:25.025Z,43.29
2022-09-15T12:13:26.538Z,42.88
2022-09-15T12:15:28.140Z,43.33
2022-09-15T12:17:39.463Z,43.74
2022-09-15T12:19:43.598Z,43.49
2022-09-15T12:21:53.214Z,43.59
2022-09-15T12:23:56.601Z,42.58
2022-09-15T12:26:05.604Z,41.98
2022-09-15T12:28:22.370Z,42.32
2022-09-15T12:30:40.467Z,41.65
2022-09-15T12:32:42.342Z,41.40
2022-09-15T12:34:59.323Z,40.78
2022-09-15T12:37:07.598Z,41.45
2022-09-15T12:39:28.007Z,41.47
2022-09-15T12:41:29.657Z,41.79
2022-09-15T12:43:31.792Z,42.83
2022-09-15T12:45:34.342Z,42.39
2022-09-15T12:47:38.187Z,42.54
2022-09-15T12:49:42.447Z,41.39
2022-09-15T12:51:47.399Z,40.93
2022-09-15T12:54:10.587Z,40.43
2022-09-15T12:56:23.636Z,39.76
2022-09-15T12:58:27.522Z,39.41
2022-09-15T13:00:30.774Z,39.70
2022-09-15T13:02:42.402Z,40.27
2022-09-15T13:04:54.074Z,40.84
2022-09-15T13:07:13.981Z,41.48
2022-09-15T13:09:23.924Z,41.43
2022-09-15T13:11:34.810Z,41.57
2022-09-15T13:13:46.683Z,40.80
2022-09-15T13:15:49.221Z,39.96
2022-09-15T13:17:50.799Z,39.88
2022-09-15T13:19:57.859Z,39.28
2022-09-15T13:21:59.494Z,39.09
2022-09-15T13:24:01.038Z,39.16
2022-09-15T13:26:02.590Z,39.80
2022-09-15T13:28:04.160Z,40.01
2022-09-15T13:30:09.268Z,40.26
2022-09-15T13:32:43.676Z,40.19
2022-09-15T13:35:04.523Z,40.96
2022-09-15T13:39:53.425Z,40.68
2022-09-15T13:42:03.816Z,40.46
2022-09-15T13:44:11.231Z,40.11
2022-09-15T13:46:18.746Z,39.21
2022-09-15T13:48:32.319Z,39.14
2022-09-15T13:50:34.591Z,39.58
2022-09-15T13:52:52.303Z,39.63
2022-09-15T13:55:12.338Z,39.86
2022-09-15T13:57:14.358Z,39.74
2022-09-15T13:59:17.243Z,39.69
2022-09-15T14:01:21.167Z,39.18
2022-09-15T14:03:49.036Z,39.86
2022-09-15T14:05:50.671Z,38.50
2022-09-15T14:07:55.733Z,38.90
2022-09-15T14:09:58.270Z,38.81
2022-09-15T14:12:01.926Z,38.73
2022-09-15T14:14:03.505Z,39.06
2022-09-15T14:16:11.793Z,39.38
2022-09-15T14:18:20.836Z,40.03
2022-09-15T14:20:31.237Z,40.54
2022-09-15T14:22:33.542Z,41.18
2022-09-15T14:24:35.073Z,41.23
2022-09-15T14:26:36.687Z,41.36
2022-09-15T14:28:38.663Z,41.39
2022-09-15T14:30:40.200Z,41.35
2022-09-15T14:32:44.151Z,41.44
2022-09-15T14:34:45.674Z,42.11
2022-09-15T14:37:01.200Z,41.94
2022-09-15T14:39:23.510Z,41.69
2022-09-15T14:41:25.049Z,40.90
2022-09-15T14:43:28.212Z,39.98
2022-09-15T14:48:08.247Z,38.68
2022-09-15T14:50:20.159Z,38.29
2022-09-15T14:52:25.963Z,38.10
2022-09-15T14:54:36.942Z,37.91
2022-09-15T14:56:38.515Z,37.52
2022-09-15T14:58:39.991Z,37.60
2022-09-15T15:00:45.034Z,37.43
2022-09-15T15:02:58.245Z,37.10
2022-09-15T15:05:09.965Z,36.71
2022-09-15T15:07:27.878Z,36.94
2022-09-15T15:09:34.738Z,36.69
2022-09-15T15:11:37.067Z,36.87
2022-09-15T15:13:39.799Z,36.15
2022-09-15T15:15:41.367Z,36.25
2022-09-15T15:17:47.125Z,36.56
2022-09-15T15:19:48.876Z,37.51
2022-09-15T15:21:50.959Z,38.11
2022-09-15T15:23:52.464Z,37.58
2022-09-15T15:25:55.028Z,37.33
2022-09-15T15:27:57.434Z,37.33
2022-09-15T15:30:17.448Z,37.05
2022-09-15T15:32:22.774Z,36.95
2022-09-15T15:34:24.310Z,37.51
2022-09-15T15:36:26.715Z,37.89
2022-09-15T15:38:28.253Z,38.42
2022-09-15T15:40:30.067Z,38.76
2022-09-15T15:42:31.710Z,39.18
2022-09-15T15:44:33.202Z,40.33
2022-09-15T15:46:54.087Z,40.92
2022-09-15T15:48:56.176Z,41.64
2022-09-15T15:50:57.761Z,41.58
2022-09-15T15:53:00.100Z,41.41
2022-09-15T15:55:01.590Z,41.62
2022-09-15T15:57:06.409Z,41.00
2022-09-15T15:59:08.866Z,39.93
2022-09-15T16:01:10.828Z,39.66
2022-09-15T16:03:12.700Z,40.00
2022-09-15T16:05:14.260Z,39.88
2022-09-15T16:07:16.715Z,40.05
2022-09-15T16:09:18.484Z,40.80
2022-09-15T16:11:20.923Z,41.32
2022-09-15T16:13:22.649Z,41.41
2022-09-15T16:15:24.130Z,41.39
2022-09-15T16:17:25.659Z,41.90
2022-09-15T16:19:27.282Z,42.43
2022-09-15T16:21:32.234Z,42.64
2022-09-15T16:23:34.045Z,42.59
2022-09-15T16:25:36.912Z,42.67
2022-09-15T16:27:38.488Z,42.86
2022-09-15T16:29:40.034Z,43.06
2022-09-15T16:31:42.921Z,43.90
2022-09-15T16:33:44.586Z,44.29
2022-09-15T16:35:51.401Z,44.20
2022-09-15T16:37:52.993Z,44.45
2022-09-15T16:40:09.205Z,44.79
2022-09-15T16:42:10.777Z,45.27
2022-09-15T16:44:21.929Z,45.16
2022-09-15T16:46:23.501Z,45.39
2022-09-15T16:48:25.419Z,45.19
2022-09-15T16:50:27.506Z,45.60
2022-09-15T16:52:29.094Z,45.08
2022-09-15T16:54:30.653Z,45.02
2022-09-15T16:56:32.152Z,45.15
2022-09-15T16:58:33.965Z,45.23
2022-09-15T17:00:36.173Z,45.30
2022-09-15T17:02:37.888Z,45.49
2022-09-15T17:04:39.373Z,45.92
2022-09-15T17:06:46.531Z,46.16
2022-09-15T17:08:48.036Z,46.40
2022-09-15T17:10:49.642Z,46.38
2022-09-15T17:12:51.226Z,46.82
2022-09-15T17:14:52.707Z,46.96
2022-09-15T17:16:54.477Z,47.22
2022-09-15T17:18:56.068Z,47.29
2022-09-15T17:20:57.619Z,47.47
2022-09-15T17:22:59.288Z,47.18
2022-09-15T17:25:00.870Z,47.26
2022-09-15T17:27:02.359Z,47.40
2022-09-15T17:29:04.256Z,47.20
2022-09-15T17:31:06.922Z,47.31
2022-09-15T17:33:10.981Z,47.47
2022-09-15T17:35:16.396Z,47.94
2022-09-15T17:37:17.906Z,47.78
2022-09-15T17:39:19.899Z,48.06
2022-09-15T17:41:22.847Z,48.34
2022-09-15T17:43:25.606Z,48.48
2022-09-15T17:45:28.454Z,48.48
2022-09-15T17:47:31.798Z,48.36
2022-09-15T17:49:33.347Z,48.01
2022-09-15T17:51:35.187Z,48.08
2022-09-15T17:53:37.126Z,48.23
2022-09-15T17:55:38.653Z,48.07
2022-09-15T17:57:40.291Z,48.09
2022-09-15T17:59:41.789Z,48.10
2022-09-15T18:01:43.373Z,48.23
2022-09-15T18:03:45.187Z,48.53
2022-09-15T18:05:47.129Z,48.61
2022-09-15T18:07:48.722Z,48.78
2022-09-15T18:09:50.217Z,48.99
2022-09-15T18:11:51.723Z,48.99
2022-09-15T18:13:53.296Z,49.08
2022-09-15T18:15:55.085Z,49.33
2022-09-15T18:17:57.706Z,49.32
2022-09-15T18:19:59.526Z,49.40
2022-09-15T18:22:01.019Z,49.73
2022-09-15T18:24:02.716Z,49.99
2022-09-15T18:26:04.229Z,49.66
2022-09-15T18:28:05.756Z,49.61
2022-09-15T18:30:07.565Z,49.87
2022-09-15T18:32:09.081Z,49.82
2022-09-15T18:34:10.712Z,49.71
2022-09-15T18:36:12.198Z,49.91
2022-09-15T18:38:13.769Z,50.04
2022-09-15T18:40:16.887Z,50.20
2022-09-15T18:42:18.414Z,50.34
2022-09-15T18:44:19.948Z,50.61
2022-09-15T18:46:21.602Z,50.83
2022-09-15T18:48:23.163Z,50.68
2022-09-15T18:50:25.575Z,50.64
2022-09-15T18:52:27.595Z,50.61
2022-09-15T18:54:29.193Z,50.50
2022-09-15T18:56:30.750Z,50.56
2022-09-15T18:58:32.259Z,50.67
2022-09-15T19:00:33.786Z,50.34
2022-09-15T19:02:35.569Z,50.45
2022-09-15T19:04:40.624Z,50.53
2022-09-15T19:06:42.321Z,50.58
2022-09-15T19:08:44.000Z,50.68
2022-09-15T19:10:45.482Z,50.62
2022-09-15T19:12:47.013Z,50.80
2022-09-15T19:14:48.566Z,50.82
2022-09-15T19:16:57.525Z,50.91
2022-09-15T19:18:59.830Z,50.67
2022-09-15T19:21:05.554Z,50.51
2022-09-15T19:23:07.045Z,50.43
2022-09-15T19:25:08.723Z,50.61
2022-09-15T19:27:10.331Z,50.35
2022-09-15T19:29:11.883Z,50.40
2022-09-15T19:31:13.724Z,50.32
2022-09-15T19:33:15.288Z,50.61
2022-09-15T19:35:16.876Z,50.71
2022-09-15T19:37:19.806Z,50.81
2022-09-15T19:39:21.373Z,51.26
2022-09-15T19:41:22.884Z,51.29
2022-09-15T19:43:24.390Z,51.24
2022-09-15T19:45:25.927Z,51.54
2022-09-15T19:47:27.426Z,51.61
2022-09-15T19:49:29.077Z,51.83
2022-09-15T19:51:31.480Z,51.84
2022-09-15T19:53:33.292Z,51.87
2022-09-15T19:55:34.803Z,52.06
2022-09-15T19:57:39.871Z,52.28
2022-09-15T19:59:41.383Z,52.39
2022-09-15T20:01:43.239Z,52.64
2022-09-15T20:03:44.983Z,52.76
2022-09-15T20:05:50.315Z,52.82
2022-09-15T20:07:51.861Z,52.93
2022-09-15T20:09:53.433Z,53.03
2022-09-15T20:11:55.082Z,53.06
2022-09-15T20:13:56.894Z,53.15
2022-09-15T20:15:59.522Z,53.16
2022-09-15T20:18:01.039Z,53.01
2022-09-15T20:20:02.773Z,53.27
2022-09-15T20:22:04.586Z,53.09
2022-09-15T20:24:06.336Z,52.99
2022-09-15T20:26:09.568Z,52.88
2022-09-15T20:28:11.082Z,52.71
2022-09-15T20:30:14.224Z,52.75
2022-09-15T20:32:15.784Z,52.61
2022-09-15T20:34:18.648Z,52.56
2022-09-15T20:36:23.199Z,52.60
2022-09-15T20:38:24.738Z,52.54
2022-09-15T20:40:26.518Z,52.44
2022-09-15T20:42:28.058Z,52.46
2022-09-15T20:44:29.541Z,52.27
2022-09-15T20:46:31.465Z,52.27
2022-09-15T20:48:33.392Z,52.24
2022-09-15T20:50:34.896Z,52.23
2022-09-15T20:52:38.573Z,52.21
2022-09-15T20:54:40.606Z,52.18
2022-09-15T20:56:42.087Z,52.26
2022-09-15T20:58:43.815Z,52.16
2022-09-15T21:00:47.455Z,52.42
2022-09-15T21:02:52.240Z,52.27
2022-09-15T21:04:53.774Z,52.12
2022-09-15T21:06:55.264Z,52.07
2022-09-15T21:08:57.761Z,51.97
2022-09-15T21:10:59.475Z,51.73
2022-09-15T21:13:01.276Z,51.78
2022-09-15T21:15:03.424Z,51.73
2022-09-15T21:17:04.941Z,51.94
2022-09-15T21:19:09.042Z,52.09
2022-09-15T21:21:10.515Z,52.24
2022-09-15T21:23:12.483Z,52.28
2022-09-15T21:25:14.010Z,52.42
2022-09-15T21:27:27.825Z,52.36
2022-09-15T21:29:29.425Z,52.34
2022-09-15T21:31:31.898Z,52.56
2022-09-15T21:33:33.781Z,52.74
2022-09-15T21:35:35.294Z,52.87
2022-09-15T21:37:36.782Z,52.91
2022-09-15T21:39:38.321Z,52.96
2022-09-15T21:41:39.846Z,52.78
2022-09-15T21:43:45.512Z,52.84
2022-09-15T21:45:52.253Z,52.85
2022-09-15T21:47:53.879Z,52.92
2022-09-15T21:49:56.462Z,52.92
2022-09-15T21:52:03.848Z,52.87
2022-09-15T21:54:05.435Z,52.78
2022-09-15T21:56:08.561Z,52.91
2022-09-15T21:58:10.076Z,52.99
2022-09-15T22:00:12.282Z,52.89
2022-09-15T22:02:13.870Z,53.04
2022-09-15T22:04:15.474Z,52.96
2022-09-15T22:06:17.286Z,52.80
2022-09-15T22:08:19.336Z,52.90
2022-09-15T22:10:20.846Z,52.83
2022-09-15T22:12:22.385Z,52.91
2022-09-15T22:14:23.926Z,52.95
2022-09-15T22:16:25.631Z,52.94
2022-09-15T22:18:27.253Z,53.07
2022-09-15T22:20:29.247Z,53.22
2022-09-15T22:22:30.836Z,53.31
2022-09-15T22:24:32.531Z,53.18
2022-09-15T22:26:35.104Z,53.41
2022-09-15T22:28:36.683Z,53.53
2022-09-15T22:30:38.224Z,53.67
2022-09-15T22:32:39.750Z,53.78
2022-09-15T22:34:41.240Z,53.89
2022-09-15T22:36:42.774Z,54.06
2022-09-15T22:38:44.498Z,54.07
2022-09-15T22:40:46.108Z,54.07
2022-09-15T22:42:48.364Z,54.25
2022-09-15T22:44:49.980Z,54.20
2022-09-15T22:46:52.710Z,54.62
2022-09-15T22:48:54.276Z,54.40
2022-09-15T22:50:55.866Z,54.79
2022-09-15T22:52:57.400Z,54.86
2022-09-15T22:54:59.068Z,55.06
2022-09-15T22:57:00.619Z,55.06
2022-09-15T22:59:02.872Z,55.20
2022-09-15T23:01:04.516Z,55.31
2022-09-15T23:03:06.556Z,55.36
2022-09-15T23:05:09.591Z,55.51
2022-09-15T23:07:11.214Z,55.54
2022-09-15T23:09:12.863Z,55.71
2022-09-15T23:11:14.471Z,55.88
2022-09-15T23:13:17.248Z,56.05
2022-09-15T23:15:19.098Z,56.13
2022-09-15T23:17:20.634Z,56.40
2022-09-15T23:19:22.177Z,56.42
2022-09-15T23:21:23.931Z,56.66
2022-09-15T23:23:25.987Z,56.63
2022-09-15T23:25:27.565Z,56.70
2022-09-15T23:27:29.084Z,56.99
2022-09-15T23:29:30.592Z,56.97
2022-09-15T23:31:32.182Z,56.88
2022-09-15T23:33:33.878Z,57.10
2022-09-15T23:35:35.817Z,57.39
2022-09-15T23:37:37.397Z,57.85
2022-09-15T23:39:38.983Z,57.71
2022-09-15T23:41:43.588Z,57.86
2022-09-15T23:43:45.358Z,57.91
2022-09-15T23:45:47.242Z,57.73
2022-09-15T23:47:53.958Z,57.77
2022-09-15T23:49:55.554Z,57.40
2022-09-15T23:51:57.220Z,56.95
2022-09-15T23:53:58.935Z,57.19
2022-09-15T23:56:00.565Z,57.28
2022-09-15T23:58:02.570Z,57.23
